createdAt,value
2022-10-09T00:01:09.375Z,7.06
2022-10-09T00:03:37.601Z,7.18
2022-10-09T00:06:06.065Z,7.22
2022-10-09T00:08:34.496Z,7.22
2022-10-09T00:11:06.132Z,7.21
2022-10-09T00:13:32.580Z,7.21
2022-10-09T00:16:03.795Z,7.11
2022-10-09T00:18:30.335Z,6.98
2022-10-09T00:20:56.790Z,6.99
2022-10-09T00:23:23.229Z,6.95
2022-10-09T00:25:52.609Z,6.96
2022-10-09T00:28:19.908Z,7.00
2022-10-09T00:30:46.381Z,6.99
2022-10-09T00:33:13.067Z,6.96
2022-10-09T00:35:39.535Z,6.90
2022-10-09T00:38:06.881Z,6.82
2022-10-09T00:40:34.383Z,6.79
2022-10-09T00:43:03.598Z,6.71
2022-10-09T00:45:31.164Z,6.82
2022-10-09T00:48:03.259Z,6.87
2022-10-09T00:50:42.058Z,6.77
2022-10-09T00:53:15.239Z,6.80
2022-10-09T00:55:43.244Z,6.79
2022-10-09T00:58:12.137Z,6.81
2022-10-09T01:00:39.300Z,6.80
2022-10-09T01:03:06.026Z,6.74
2022-10-09T01:05:53.240Z,6.71
2022-10-09T01:08:30.936Z,6.66
2022-10-09T01:11:20.855Z,6.66
2022-10-09T01:14:04.475Z,6.63
2022-10-09T01:16:44.838Z,6.63
2022-10-09T01:19:27.585Z,6.51
2022-10-09T01:22:06.211Z,6.42
2022-10-09T01:24:40.974Z,6.30
2022-10-09T01:27:36.562Z,6.17
2022-10-09T01:30:12.253Z,6.12
2022-10-09T01:32:43.539Z,6.07
2022-10-09T01:35:14.122Z,6.08
2022-10-09T01:37:43.454Z,6.21
2022-10-09T01:40:12.636Z,6.35
2022-10-09T01:42:39.148Z,6.33
2022-10-09T01:45:06.141Z,6.38
2022-10-09T01:47:32.854Z,6.40
2022-10-09T01:50:05.855Z,6.37
2022-10-09T01:52:54.438Z,6.32
2022-10-09T01:55:45.260Z,6.18
2022-10-09T01:58:30.782Z,6.12
2022-10-09T02:01:02.777Z,6.07
2022-10-09T02:03:32.082Z,6.20
2022-10-09T02:06:01.235Z,6.13
2022-10-09T02:08:29.998Z,6.13
2022-10-09T02:11:00.536Z,6.01
2022-10-09T02:13:27.757Z,5.97
2022-10-09T02:16:19.834Z,5.90
2022-10-09T02:18:55.988Z,5.82
2022-10-09T02:21:28.932Z,5.75
2022-10-09T02:23:57.958Z,5.69
2022-10-09T02:26:25.007Z,5.61
2022-10-09T02:28:54.415Z,5.56
2022-10-09T02:31:28.205Z,5.54
2022-10-09T02:33:59.428Z,5.45
2022-10-09T02:36:29.115Z,5.41
2022-10-09T02:38:56.300Z,5.37
2022-10-09T02:41:23.900Z,5.36
2022-10-09T02:43:50.746Z,5.25
2022-10-09T02:46:17.532Z,5.22
2022-10-09T02:48:44.412Z,5.19
2022-10-09T02:51:11.638Z,5.21
2022-10-09T02:53:38.174Z,5.14
2022-10-09T02:56:05.041Z,5.09
2022-10-09T02:58:33.325Z,5.05
2022-10-09T03:01:00.157Z,4.98
2022-10-09T03:03:26.919Z,4.94
2022-10-09T03:06:11.596Z,4.80
2022-10-09T03:08:40.529Z,4.70
2022-10-09T03:11:07.309Z,4.59
2022-10-09T03:13:34.165Z,4.49
2022-10-09T03:16:12.080Z,4.41
2022-10-09T03:18:39.172Z,4.45
2022-10-09T03:21:07.469Z,4.46
2022-10-09T03:23:34.895Z,4.40
2022-10-09T03:26:05.097Z,4.34
2022-10-09T03:28:31.881Z,4.34
2022-10-09T03:30:58.448Z,4.34
2022-10-09T03:33:24.925Z,4.42
2022-10-09T03:35:51.510Z,4.38
2022-10-09T03:38:18.110Z,4.39
2022-10-09T03:40:46.996Z,4.28
2022-10-09T03:43:13.541Z,4.32
2022-10-09T03:45:41.285Z,4.35
2022-10-09T03:48:09.325Z,4.31
2022-10-09T03:50:37.781Z,4.27
2022-10-09T03:53:04.985Z,4.18
2022-10-09T03:55:31.633Z,4.15
2022-10-09T03:57:58.520Z,4.13
2022-10-09T04:00:25.176Z,4.09
2022-10-09T04:02:52.494Z,4.10
2022-10-09T04:05:19.567Z,4.08
2022-10-09T04:07:46.121Z,4.08
2022-10-09T04:10:13.027Z,4.11
2022-10-09T04:12:39.616Z,4.11
2022-10-09T04:15:06.615Z,4.21
2022-10-09T04:17:33.198Z,4.16
2022-10-09T04:19:59.635Z,4.17
2022-10-09T04:22:26.233Z,4.12
2022-10-09T04:24:52.631Z,4.16
2022-10-09T04:27:19.370Z,4.11
2022-10-09T04:29:45.860Z,4.10
2022-10-09T04:32:12.288Z,4.07
2022-10-09T04:34:38.806Z,4.03
2022-10-09T04:37:05.292Z,4.00
2022-10-09T04:39:31.744Z,3.96
2022-10-09T04:41:58.204Z,3.95
2022-10-09T04:44:24.688Z,3.92
2022-10-09T04:46:51.726Z,3.82
2022-10-09T04:49:18.604Z,3.69
2022-10-09T04:51:45.229Z,3.72
2022-10-09T04:54:12.012Z,3.69
2022-10-09T04:56:39.285Z,3.68
2022-10-09T04:59:05.742Z,3.65
2022-10-09T05:04:13.205Z,3.91
2022-10-09T05:06:39.745Z,3.88
2022-10-09T05:09:06.232Z,3.81
2022-10-09T05:11:32.695Z,3.77
2022-10-09T05:13:59.301Z,3.78
2022-10-09T05:16:29.292Z,3.75
2022-10-09T05:18:57.922Z,3.71
2022-10-09T05:21:27.644Z,3.61
2022-10-09T05:23:55.320Z,3.56
2022-10-09T05:26:23.368Z,3.58
2022-10-09T05:28:50.276Z,3.51
2022-10-09T05:31:28.926Z,3.51
2022-10-09T05:33:58.397Z,3.52
2022-10-09T05:36:24.982Z,3.48
2022-10-09T05:38:51.448Z,3.51
2022-10-09T05:41:19.473Z,3.52
2022-10-09T05:43:47.919Z,3.57
2022-10-09T05:46:15.771Z,3.54
2022-10-09T05:48:45.502Z,3.61
2022-10-09T05:51:15.183Z,3.54
2022-10-09T05:53:43.053Z,3.59
2022-10-09T05:56:20.717Z,3.56
2022-10-09T05:58:58.193Z,3.58
2022-10-09T06:01:26.989Z,3.54
2022-10-09T06:03:59.041Z,3.59
2022-10-09T06:06:31.385Z,3.59
2022-10-09T06:08:58.615Z,3.63
2022-10-09T06:11:33.346Z,3.66
2022-10-09T06:14:01.511Z,3.71
2022-10-09T06:16:31.729Z,3.79
2022-10-09T06:18:58.678Z,3.79
2022-10-09T06:21:26.442Z,3.81
2022-10-09T06:23:55.287Z,3.81
2022-10-09T06:26:25.409Z,3.69
2022-10-09T06:28:53.281Z,3.62
2022-10-09T06:31:22.936Z,3.65
2022-10-09T06:33:51.279Z,3.72
2022-10-09T06:36:20.211Z,3.59
2022-10-09T06:38:47.489Z,3.72
2022-10-09T06:41:17.968Z,3.81
2022-10-09T06:43:49.974Z,3.89
2022-10-09T06:46:17.454Z,3.87
2022-10-09T06:48:44.234Z,3.94
2022-10-09T06:51:19.059Z,3.93
2022-10-09T06:53:48.439Z,3.90
2022-10-09T06:56:18.749Z,3.97
2022-10-09T06:58:45.731Z,4.11
2022-10-09T07:01:27.244Z,4.25
2022-10-09T07:03:56.527Z,4.32
2022-10-09T07:06:29.542Z,4.39
2022-10-09T07:09:03.786Z,4.48
2022-10-09T07:11:36.755Z,4.52
2022-10-09T07:14:06.114Z,4.54
2022-10-09T07:16:35.939Z,4.60
2022-10-09T07:19:06.463Z,4.60
2022-10-09T07:21:37.258Z,4.73
2022-10-09T07:24:05.092Z,4.83
2022-10-09T07:26:34.955Z,4.93
2022-10-09T07:29:02.596Z,4.99
2022-10-09T07:31:29.291Z,4.92
2022-10-09T07:33:58.612Z,5.00
2022-10-09T07:36:28.422Z,4.97
2022-10-09T07:38:58.515Z,5.06
2022-10-09T07:41:28.985Z,5.06
2022-10-09T07:43:58.080Z,5.12
2022-10-09T07:46:30.806Z,5.18
2022-10-09T07:48:59.742Z,5.46
2022-10-09T07:51:28.926Z,5.63
2022-10-09T07:53:59.267Z,5.84
2022-10-09T07:56:30.159Z,5.81
2022-10-09T07:59:00.222Z,6.05
2022-10-09T08:01:33.983Z,6.35
2022-10-09T08:04:02.094Z,6.45
2022-10-09T08:06:28.963Z,6.65
2022-10-09T08:09:00.404Z,6.85
2022-10-09T08:11:29.173Z,7.16
2022-10-09T08:14:01.406Z,7.45
2022-10-09T08:16:31.901Z,7.66
2022-10-09T08:19:00.377Z,7.57
2022-10-09T08:21:30.034Z,7.90
2022-10-09T08:23:58.079Z,8.26
2022-10-09T08:26:26.089Z,8.59
2022-10-09T08:29:01.039Z,8.91
2022-10-09T08:31:28.774Z,9.16
2022-10-09T08:34:00.797Z,9.36
2022-10-09T08:36:31.674Z,9.66
2022-10-09T08:38:58.842Z,9.89
2022-10-09T08:41:54.239Z,10.04
2022-10-09T08:44:40.889Z,10.13
2022-10-09T08:47:26.292Z,10.35
2022-10-09T08:50:11.334Z,10.74
2022-10-09T08:53:00.995Z,11.17
2022-10-09T08:55:50.604Z,11.55
2022-10-09T08:58:21.379Z,11.83
2022-10-09T09:01:07.873Z,12.12
2022-10-09T09:04:04.573Z,12.18
2022-10-09T09:06:48.213Z,12.61
2022-10-09T09:09:27.892Z,12.92
2022-10-09T09:12:12.712Z,12.96
2022-10-09T09:15:13.369Z,13.07
2022-10-09T09:18:17.449Z,13.18
2022-10-09T09:20:55.800Z,13.36
2022-10-09T09:23:38.753Z,13.49
2022-10-09T09:26:13.757Z,13.61
2022-10-09T09:28:44.048Z,13.95
2022-10-09T09:31:19.485Z,14.06
2022-10-09T09:34:13.608Z,14.18
2022-10-09T09:37:09.847Z,14.35
2022-10-09T09:40:31.400Z,14.63
2022-10-09T09:42:35.629Z,14.82
2022-10-09T09:45:15.605Z,14.93
2022-10-09T09:47:55.989Z,15.03
2022-10-09T09:50:50.572Z,15.25
2022-10-09T09:53:43.979Z,15.19
2022-10-09T09:56:11.205Z,15.09
2022-10-09T09:58:49.916Z,15.09
2022-10-09T10:01:28.193Z,15.21
2022-10-09T10:03:58.047Z,14.98
2022-10-09T10:06:47.708Z,15.26
2022-10-09T10:09:19.373Z,15.43
2022-10-09T10:11:59.712Z,15.48
2022-10-09T10:14:27.505Z,15.78
2022-10-09T10:16:58.850Z,15.77
2022-10-09T10:19:46.151Z,15.68
2022-10-09T10:22:29.667Z,15.82
2022-10-09T10:25:00.150Z,16.03
2022-10-09T10:27:39.632Z,15.78
2022-10-09T10:30:15.937Z,15.56
2022-10-09T10:33:16.307Z,15.61
2022-10-09T10:35:44.617Z,15.73
2022-10-09T10:38:19.952Z,15.84
2022-10-09T10:40:56.788Z,15.77
2022-10-09T10:43:33.548Z,16.05
2022-10-09T10:46:11.544Z,16.32
2022-10-09T10:48:42.403Z,16.28
2022-10-09T10:51:31.907Z,16.21
2022-10-09T10:54:32.267Z,16.30
2022-10-09T10:57:45.873Z,16.45
2022-10-09T11:00:15.912Z,16.51
2022-10-09T11:02:48.546Z,16.49
2022-10-09T11:05:28.221Z,16.43
2022-10-09T11:08:08.394Z,16.58
2022-10-09T11:11:02.155Z,16.70
2022-10-09T11:13:46.929Z,16.34
2022-10-09T11:16:36.735Z,16.36
2022-10-09T11:19:16.136Z,16.24
2022-10-09T11:22:18.777Z,16.26
2022-10-09T11:25:02.438Z,16.45
2022-10-09T11:27:47.957Z,16.60
2022-10-09T11:30:19.873Z,16.69
2022-10-09T11:33:18.701Z,17.04
2022-10-09T11:36:04.247Z,16.82
2022-10-09T11:38:44.077Z,16.89
2022-10-09T11:41:11.735Z,16.76
2022-10-09T11:43:50.155Z,16.94
2022-10-09T11:46:43.290Z,16.98
2022-10-09T11:49:12.698Z,17.22
2022-10-09T11:51:54.026Z,17.08
2022-10-09T11:54:27.315Z,17.37
2022-10-09T11:57:06.017Z,17.48
2022-10-09T11:59:41.949Z,17.40
2022-10-09T12:02:40.488Z,17.48
2022-10-09T12:05:34.823Z,17.83
2022-10-09T12:08:25.055Z,17.85
2022-10-09T12:10:55.860Z,17.79
2022-10-09T12:13:43.444Z,17.63
2022-10-09T12:16:50.835Z,17.51
2022-10-09T12:19:25.094Z,17.70
2022-10-09T12:22:13.073Z,17.69
2022-10-09T12:24:45.410Z,17.83
2022-10-09T12:27:20.843Z,17.85
2022-10-09T12:29:56.781Z,17.74
2022-10-09T12:32:36.055Z,17.83
2022-10-09T12:35:20.011Z,17.78
2022-10-09T12:37:48.769Z,17.97
2022-10-09T12:40:24.511Z,17.93
2022-10-09T12:42:53.652Z,17.68
2022-10-09T12:45:24.916Z,17.60
2022-10-09T12:47:53.980Z,17.76
2022-10-09T12:50:28.262Z,17.82
2022-10-09T12:52:58.481Z,17.97
2022-10-09T12:55:32.459Z,18.05
2022-10-09T12:58:06.265Z,18.03
2022-10-09T13:00:34.058Z,17.82
2022-10-09T13:03:02.736Z,17.80
2022-10-09T13:05:46.141Z,17.80
2022-10-09T13:08:32.404Z,17.70
2022-10-09T13:11:20.565Z,17.42
2022-10-09T13:14:03.772Z,17.57
2022-10-09T13:16:50.157Z,17.60
2022-10-09T13:19:29.093Z,17.58
2022-10-09T13:22:06.454Z,17.69
2022-10-09T13:27:29.338Z,17.70
2022-10-09T13:29:56.808Z,17.60
2022-10-09T13:32:24.692Z,17.61
2022-10-09T13:34:55.065Z,17.67
2022-10-09T13:37:25.280Z,17.61
2022-10-09T13:39:59.485Z,17.45
2022-10-09T13:42:32.504Z,17.42
2022-10-09T13:44:59.223Z,17.41
2022-10-09T13:47:28.111Z,17.27
2022-10-09T13:49:54.972Z,17.14
2022-10-09T13:52:28.520Z,17.17
2022-10-09T13:54:55.748Z,17.27
2022-10-09T13:57:34.437Z,17.32
2022-10-09T14:00:07.168Z,17.30
2022-10-09T14:02:38.382Z,17.27
2022-10-09T14:05:05.563Z,17.19
2022-10-09T14:07:32.197Z,17.25
2022-10-09T14:09:58.793Z,17.25
2022-10-09T14:12:27.716Z,17.24
2022-10-09T14:14:57.118Z,17.19
2022-10-09T14:17:23.809Z,17.17
2022-10-09T14:19:50.419Z,17.19
2022-10-09T14:22:17.354Z,17.24
2022-10-09T14:24:57.075Z,17.29
2022-10-09T14:27:25.829Z,17.35
2022-10-09T14:29:57.406Z,17.40
2022-10-09T14:32:24.579Z,17.44
2022-10-09T14:34:54.203Z,17.37
2022-10-09T14:37:40.013Z,17.35
2022-10-09T14:40:08.211Z,17.39
2022-10-09T14:42:39.317Z,17.38
2022-10-09T14:45:07.312Z,17.37
2022-10-09T14:47:36.113Z,17.39
2022-10-09T14:50:02.745Z,17.33
2022-10-09T14:52:29.290Z,17.38
2022-10-09T14:54:56.832Z,17.43
2022-10-09T14:57:35.748Z,17.39
2022-10-09T15:00:07.809Z,17.39
2022-10-09T15:02:34.672Z,17.29
2022-10-09T15:05:15.101Z,17.29
2022-10-09T15:07:44.189Z,17.29
2022-10-09T15:10:10.641Z,17.22
2022-10-09T15:12:46.406Z,17.18
2022-10-09T15:15:16.330Z,17.10
2022-10-09T15:17:45.531Z,17.05
2022-10-09T15:20:13.558Z,17.06
2022-10-09T15:22:40.342Z,17.04
2022-10-09T15:25:08.379Z,17.06
2022-10-09T15:27:43.260Z,17.01
2022-10-09T15:30:10.702Z,16.97
2022-10-09T15:32:39.771Z,17.00
2022-10-09T15:35:07.244Z,16.96
2022-10-09T15:37:34.094Z,16.93
2022-10-09T15:40:00.784Z,16.78
2022-10-09T15:42:27.372Z,16.64
2022-10-09T15:44:54.060Z,16.56
2022-10-09T15:47:49.511Z,16.50
2022-10-09T15:50:11.042Z,16.43
2022-10-09T15:52:40.174Z,16.36
2022-10-09T15:55:07.465Z,16.24
2022-10-09T15:57:34.208Z,16.02
2022-10-09T16:00:03.054Z,15.91
2022-10-09T16:02:32.115Z,15.80
2022-10-09T16:04:59.745Z,15.74
2022-10-09T16:07:28.735Z,15.64
2022-10-09T16:09:55.378Z,15.57
2022-10-09T16:12:24.580Z,15.48
2022-10-09T16:14:57.554Z,15.34
2022-10-09T16:17:24.202Z,15.22
2022-10-09T16:19:50.919Z,15.12
2022-10-09T16:22:35.125Z,15.02
2022-10-09T16:25:04.205Z,14.84
2022-10-09T16:27:34.566Z,14.77
2022-10-09T16:30:01.436Z,14.76
2022-10-09T16:32:30.751Z,14.63
2022-10-09T16:35:02.864Z,14.50
2022-10-09T16:37:32.681Z,14.36
2022-10-09T16:40:02.113Z,14.27
2022-10-09T16:42:28.743Z,14.20
2022-10-09T16:44:55.384Z,14.12
2022-10-09T16:47:22.090Z,14.08
2022-10-09T16:50:01.465Z,13.97
2022-10-09T16:52:28.493Z,14.02
2022-10-09T16:54:59.547Z,13.90
2022-10-09T16:57:27.004Z,13.78
2022-10-09T16:59:54.981Z,13.71
2022-10-09T17:02:24.386Z,13.67
2022-10-09T17:04:52.415Z,13.57
2022-10-09T17:07:24.946Z,13.51
2022-10-09T17:09:55.128Z,13.48
2022-10-09T17:12:24.117Z,13.33
2022-10-09T17:14:53.918Z,13.24
2022-10-09T17:17:22.936Z,13.14
2022-10-09T17:22:23.577Z,12.98
2022-10-09T17:25:02.958Z,12.93
2022-10-09T17:27:29.585Z,12.87
2022-10-09T17:30:02.323Z,12.75
2022-10-09T17:32:32.035Z,12.70
2022-10-09T17:35:03.106Z,12.65
2022-10-09T17:37:32.356Z,12.62
2022-10-09T17:40:01.649Z,12.57
2022-10-09T17:42:28.368Z,12.51
2022-10-09T17:44:57.173Z,12.46
2022-10-09T17:47:41.355Z,12.37
2022-10-09T17:50:09.065Z,12.29
2022-10-09T17:52:35.788Z,12.24
2022-10-09T17:55:09.868Z,12.17
2022-10-09T17:57:36.606Z,12.14
2022-10-09T18:00:03.875Z,12.12
2022-10-09T18:02:30.623Z,12.02
2022-10-09T18:04:58.125Z,11.93
2022-10-09T18:07:25.375Z,11.92
2022-10-09T18:09:55.177Z,11.73
2022-10-09T18:12:21.851Z,11.63
2022-10-09T18:14:54.778Z,11.65
2022-10-09T18:17:21.633Z,11.55
2022-10-09T18:19:48.436Z,11.43
2022-10-09T18:22:15.054Z,11.38
2022-10-09T18:24:49.337Z,11.49
2022-10-09T18:27:17.017Z,11.53
2022-10-09T18:29:43.882Z,11.62
2022-10-09T18:32:13.292Z,11.60
2022-10-09T18:34:46.377Z,11.53
2022-10-09T18:37:13.290Z,11.53
2022-10-09T18:39:40.038Z,11.44
2022-10-09T18:42:09.784Z,11.35
2022-10-09T18:44:42.531Z,11.26
2022-10-09T18:47:14.605Z,11.23
2022-10-09T18:49:45.999Z,11.21
2022-10-09T18:52:14.043Z,11.13
2022-10-09T18:54:42.239Z,11.17
2022-10-09T18:57:12.628Z,11.19
2022-10-09T18:59:40.388Z,11.19
2022-10-09T19:02:09.065Z,11.18
2022-10-09T19:04:35.742Z,11.18
2022-10-09T19:07:02.465Z,11.10
2022-10-09T19:09:48.333Z,11.11
2022-10-09T19:12:19.937Z,11.06
2022-10-09T19:14:47.332Z,11.00
2022-10-09T19:17:14.470Z,10.97
2022-10-09T19:19:41.760Z,10.98
2022-10-09T19:22:15.208Z,10.92
2022-10-09T19:24:43.836Z,10.92
2022-10-09T19:27:13.871Z,10.89
2022-10-09T19:29:53.439Z,10.88
2022-10-09T19:32:45.241Z,10.85
2022-10-09T19:35:16.466Z,10.80
2022-10-09T19:37:43.116Z,10.77
2022-10-09T19:40:11.286Z,10.72
2022-10-09T19:42:37.904Z,10.69
2022-10-09T19:45:04.762Z,10.67
2022-10-09T19:47:31.477Z,10.65
2022-10-09T19:50:05.286Z,10.64
2022-10-09T19:52:32.053Z,10.58
2022-10-09T19:55:01.065Z,10.59
2022-10-09T19:57:29.819Z,10.48
2022-10-09T20:00:03.289Z,10.46
2022-10-09T20:02:31.383Z,10.46
2022-10-09T20:04:59.514Z,10.46
2022-10-09T20:07:26.218Z,10.37
2022-10-09T20:09:52.940Z,10.37
2022-10-09T20:12:19.844Z,10.44
2022-10-09T20:14:46.604Z,10.47
2022-10-09T20:17:13.216Z,10.52
2022-10-09T20:19:43.494Z,10.51
2022-10-09T20:22:13.635Z,10.56
2022-10-09T20:24:40.539Z,10.57
2022-10-09T20:27:07.319Z,10.62
2022-10-09T20:29:35.383Z,10.69
2022-10-09T20:32:01.923Z,10.75
2022-10-09T20:34:39.223Z,10.78
2022-10-09T20:37:08.651Z,10.80
2022-10-09T20:39:35.230Z,10.81
2022-10-09T20:42:01.777Z,10.82
2022-10-09T20:44:28.548Z,10.81
2022-10-09T20:47:02.726Z,10.82
2022-10-09T20:49:29.390Z,10.84
2022-10-09T20:51:56.902Z,10.81
2022-10-09T20:54:26.106Z,10.83
2022-10-09T20:56:52.750Z,10.80
2022-10-09T20:59:19.362Z,10.81
2022-10-09T21:01:46.042Z,10.76
2022-10-09T21:04:12.771Z,10.73
2022-10-09T21:06:41.820Z,10.77
2022-10-09T21:09:09.958Z,10.72
2022-10-09T21:11:38.098Z,10.72
2022-10-09T21:14:04.902Z,10.69
2022-10-09T21:16:31.620Z,10.75
2022-10-09T21:19:02.986Z,10.69
2022-10-09T21:21:30.409Z,10.64
2022-10-09T21:23:58.801Z,10.62
2022-10-09T21:26:26.863Z,10.57
2022-10-09T21:28:58.998Z,10.57
2022-10-09T21:31:28.409Z,10.55
2022-10-09T21:33:56.357Z,10.55
2022-10-09T21:36:31.683Z,10.49
2022-10-09T21:38:58.402Z,10.46
2022-10-09T21:41:27.479Z,10.48
2022-10-09T21:43:53.975Z,10.50
2022-10-09T21:46:20.815Z,10.48
2022-10-09T21:48:47.524Z,10.49
2022-10-09T21:51:14.085Z,10.52
2022-10-09T21:53:40.642Z,10.52
2022-10-09T21:56:07.437Z,10.48
2022-10-09T21:58:34.115Z,10.44
2022-10-09T22:01:01.986Z,10.47
2022-10-09T22:03:32.101Z,10.50
2022-10-09T22:05:58.660Z,10.44
2022-10-09T22:08:26.086Z,10.48
2022-10-09T22:10:52.879Z,10.49
2022-10-09T22:13:24.502Z,10.51
2022-10-09T22:15:51.567Z,10.53
2022-10-09T22:18:19.521Z,10.52
2022-10-09T22:20:49.121Z,10.52
2022-10-09T22:23:20.398Z,10.53
2022-10-09T22:26:05.411Z,10.48
2022-10-09T22:28:33.142Z,10.48
2022-10-09T22:31:23.269Z,10.41
2022-10-09T22:33:56.256Z,10.39
2022-10-09T22:36:26.481Z,10.40
2022-10-09T22:38:58.207Z,10.50
2022-10-09T22:41:26.334Z,10.51
2022-10-09T22:43:55.106Z,10.47
2022-10-09T22:46:27.835Z,10.44
2022-10-09T22:48:55.329Z,10.37
2022-10-09T22:51:23.515Z,10.36
2022-10-09T22:53:50.275Z,10.37
2022-10-09T22:56:21.834Z,10.29
2022-10-09T22:58:55.799Z,10.26
2022-10-09T23:01:27.263Z,10.24
2022-10-09T23:03:53.743Z,10.20
2022-10-09T23:06:20.271Z,10.27
2022-10-09T23:08:48.420Z,10.19
2022-10-09T23:11:16.461Z,10.11
2022-10-09T23:13:45.184Z,10.01
2022-10-09T23:16:14.061Z,9.96
2022-10-09T23:18:41.217Z,9.88
2022-10-09T23:21:16.654Z,9.83
2022-10-09T23:23:46.826Z,9.81
2022-10-09T23:26:19.578Z,9.76
2022-10-09T23:29:02.409Z,9.72
2022-10-09T23:31:29.651Z,9.72
2022-10-09T23:33:57.170Z,9.70
2022-10-09T23:36:27.156Z,9.72
2022-10-09T23:38:54.012Z,9.78
2022-10-09T23:41:23.443Z,9.86
2022-10-09T23:43:54.111Z,9.93
2022-10-09T23:46:25.764Z,9.92
2022-10-09T23:48:55.340Z,9.99
2022-10-09T23:51:23.373Z,10.01
2022-10-09T23:53:50.086Z,9.91
2022-10-09T23:56:24.340Z,9.88
2022-10-09T23:58:52.107Z,9.88
